createdAt,value
2022-09-04T00:00:24.967Z,14.25
2022-09-04T00:01:45.105Z,14.23
2022-09-04T00:03:00.077Z,14.20
2022-09-04T00:04:16.753Z,14.16
2022-09-04T00:05:25.391Z,14.14
2022-09-04T00:06:38.460Z,14.13
2022-09-04T00:07:52.805Z,14.12
2022-09-04T00:09:06.494Z,14.11
2022-09-04T00:10:19.439Z,14.11
2022-09-04T00:11:38.125Z,14.12
2022-09-04T00:12:47.213Z,14.13
2022-09-04T00:13:58.417Z,14.13
2022-09-04T00:15:07.619Z,14.09
2022-09-04T00:16:20.121Z,14.08
2022-09-04T00:17:29.679Z,14.09
2022-09-04T00:18:40.338Z,14.12
2022-09-04T00:19:48.719Z,14.08
2022-09-04T00:20:59.223Z,14.07
2022-09-04T00:22:04.349Z,14.05
2022-09-04T00:23:16.661Z,14.07
2022-09-04T00:24:23.222Z,14.08
2022-09-04T00:25:38.239Z,14.08
2022-09-04T00:26:52.939Z,14.07
2022-09-04T00:28:05.654Z,14.05
2022-09-04T00:29:17.884Z,14.01
2022-09-04T00:30:21.728Z,13.99
2022-09-04T00:31:38.915Z,13.95
2022-09-04T00:32:49.691Z,13.94
2022-09-04T00:34:01.013Z,13.91
2022-09-04T00:35:13.822Z,13.87
2022-09-04T00:36:17.530Z,13.85
2022-09-04T00:37:28.906Z,13.82
2022-09-04T00:38:41.319Z,13.81
2022-09-04T00:39:51.169Z,13.76
2022-09-04T00:41:05.968Z,13.76
2022-09-04T00:42:26.624Z,13.73
2022-09-04T00:43:59.133Z,13.66
2022-09-04T00:45:31.926Z,13.56
2022-09-04T00:46:52.299Z,13.50
2022-09-04T00:48:12.197Z,13.46
2022-09-04T00:49:33.053Z,13.41
2022-09-04T00:50:51.608Z,13.35
2022-09-04T00:52:02.150Z,13.30
2022-09-04T00:53:30.177Z,13.23
2022-09-04T00:54:47.841Z,13.19
2022-09-04T00:56:25.325Z,13.11
